Terminal Aerodrome Forecast
Issued by NWS Grand Forks, ND

Current Version | Previous Version | Text Only | Print | Product List | Glossary On
Versions: 1 2 3 4 5 6 7 8 9 10 11 12 13 14 15 16 17 18 19 20 21 22 23 24 25 26 27 28
000
FTUS43 KFGF 170050 AAA
TAFFAR
TAF AMD
KFAR 170050Z 1701/1724 VRB03KT P6SM FEW012
      TEMPO 1701/1704 4SM BR OVC009
     FM170700 21004KT P6SM BKN019
     FM171200 22006KT P6SM SCT200=

USA.gov is the U.S. government's official web portal to all federal, state and local government web resources and services.